Accueil
METAR-TAF:

METAR-TAF

Aéroports :

Seward, Alaska, États-Unis

latitude: 60-07N, longitude: 149-27W, altitude: 9 m

Observation

Le bulletin a été fait il y a 10 minutes, à 05:20 UTC
Vent 4 kt de direction variable
Température 4°C
Humidité 93%
Pression 990 hPa
Visibilité: 4.8 km
Nuages fragmentés à une hauteur de 2500 ft
Ciel couvert à une hauteur de 3000 ft
pluie, brume

METAR: PAWD 080520Z AUTO VRB04KT 3SM RA BR BKN025 OVC030 04/03 A2922 RMK AO2 PRESFR P0010 T00390033 TSNO

Heure: 20:30 (05:30 UTC)


TAF: absent

Observations et prévisions météorologiques de plus de 4000 aéroports (messages METAR et TAF).

Les stations disponibles sont représentées par des disques jaunes et rouges sur la carte.

Passer la souris dessus pour voir le nom de la station.

Cliquer dessus pour voir les observations et prévisions météorologiques.

Pour changer de carte: cliquez sur les boutons verts avec une croix noire pour zoomer, sur le bouton vert avec un tiret pour effectuer un zoom arrière, ou sur les flèches vertes pour les cartes adjacentes.


METAR-TAF: